This is the latest recevied weather packets stored in our database for station/object WE1C. If no packets are shown the sender has not sent any weather packets the latest 10 day(s).
| Time | Temp. | Humidity | Pressure | Rain* | Wind** | Luminosity | Snow |
|---|---|---|---|---|---|---|---|
| 1777302955 | 16.67° C | 42% | 1054.1 hPa | 0 mm | - | 858 W/m² | - |
| 1777302651 | 15.56° C | 44% | 1054 hPa | 0 mm | - | 854 W/m² | - |
| 1777302350 | 15.56° C | 43% | 1054 hPa | 0 mm | - | 878 W/m² | - |
| 1777302046 | 15.56° C | 43% | 1054.2 hPa | 0 mm | - | 862 W/m² | - |
| 1777301745 | 15.56° C | 47% | 1054.2 hPa | 0 mm | - | 860 W/m² | - |
| 1777301441 | 15.56° C | 45% | 1054.1 hPa | 0 mm | - | 875 W/m² | - |
| 1777301138 | 15.56° C | 44% | 1054 hPa | 0 mm | - | 860 W/m² | - |
| 1777300835 | 15.56° C | 45% | 1054 hPa | 0 mm | - | 855 W/m² | - |
| 1777300534 | 15.56° C | 44% | 1054.2 hPa | 0 mm | - | 846 W/m² | - |
| 1777300231 | 15° C | 46% | 1054.1 hPa | 0 mm | - | 811 W/m² | - |
| 1777299927 | 15.56° C | 44% | 1054.2 hPa | 0 mm | - | 809 W/m² | - |
| 1777299624 | 14.44° C | 46% | 1054.1 hPa | 0 mm | - | 766 W/m² | - |
| 1777299323 | 14.44° C | 45% | 1054 hPa | 0 mm | - | 744 W/m² | - |
| 1777299020 | 14.44° C | 46% | 1054 hPa | 0 mm | - | 776 W/m² | - |
| 1777298716 | 13.89° C | 47% | 1054.3 hPa | 0 mm | - | 764 W/m² | - |
| 1777298413 | 14.44° C | 46% | 1054.1 hPa | 0 mm | - | 747 W/m² | - |
| 1777298109 | 13.89° C | 46% | 1054.3 hPa | 0 mm | - | 721 W/m² | - |
| 1777297809 | 13.33° C | 49% | 1054.1 hPa | 0 mm | - | 705 W/m² | - |
| 1777297508 | 13.89° C | 47% | 1054 hPa | 0 mm | - | 678 W/m² | - |
| 1777297204 | 13.33° C | 47% | 1054 hPa | 0 mm | - | 665 W/m² | - |
| 1777296901 | 12.78° C | 49% | 1053.9 hPa | 0 mm | - | 637 W/m² | - |
| 1777296597 | 12.78° C | 48% | 1054 hPa | 0 mm | - | 615 W/m² | - |
| 1777296268 | 12.78° C | 48% | 1054.1 hPa | 0 mm | - | 606 W/m² | - |
| 1777295964 | 12.78° C | 47% | 1053.8 hPa | 0 mm | - | 580 W/m² | - |
| 1777295662 | 12.78° C | 50% | 1053.6 hPa | 0 mm | - | 569 W/m² | - |
* Rain latest hour (hover to see other rain measurements)
** Current wind speed in m/s (hover to see current wind gust speed)